Time;durP1;ratioP1;P1;durP2;ratioP2;P2;SDS_P1;SDS_P2;PMS_P1;PMS_P2;Temp;Humidity;BMP_temperature;BMP_pressure;BME280_temperature;BME280_humidity;BME280_pressure;Samples;Min_cycle;Max_cycle;Signal;HPM_P1;HPM_P2
2023/03/24 00:01:02;;;;;;;3.65;1.42;;;;;;;;;;5033424;28;20026;-73
2023/03/24 00:03:29;;;;;;;2.08;1.35;;;;;;;;;;5033072;28;20033;-74
2023/03/24 00:05:57;;;;;;;4.38;1.30;;;;;;;;;;5032975;28;20068;-73
2023/03/24 00:08:22;;;;;;;1.55;1.10;;;;;;;;;;5032984;28;20496;-75
2023/03/24 00:10:49;;;;;;;1.92;1.30;;;;;;;;;;5033266;28;20033;-73
2023/03/24 00:13:15;;;;;;;3.30;1.30;;;;;;;;;;5033259;28;20455;-74
2023/03/24 00:15:40;;;;;;;2.45;1.40;;;;;;;;;;5032828;28;20051;-74
2023/03/24 00:18:09;;;;;;;2.40;1.57;;;;;;;;;;5032769;28;20042;-74
2023/03/24 00:20:34;;;;;;;4.28;1.70;;;;;;;;;;5032874;28;20266;-74
2023/03/24 00:23:00;;;;;;;1.92;1.40;;;;;;;;;;5033447;28;20021;-75
2023/03/24 00:25:28;;;;;;;4.30;1.30;;;;;;;;;;5032795;28;20022;-74
2023/03/24 00:27:56;;;;;;;2.50;1.50;;;;;;;;;;5032762;28;20116;-74
2023/03/24 00:30:22;;;;;;;2.88;1.50;;;;;;;;;;5033085;28;20506;-73
2023/03/24 00:32:47;;;;;;;3.38;1.60;;;;;;;;;;5033208;28;20025;-74
2023/03/24 00:35:15;;;;;;;3.60;1.80;;;;;;;;;;5031671;28;20444;-71
2023/03/24 00:37:41;;;;;;;2.30;1.60;;;;;;;;;;5034977;28;20278;-73
2023/03/24 00:40:12;;;;;;;5.20;1.73;;;;;;;;;;5035497;28;20481;-72
2023/03/24 00:42:39;;;;;;;2.60;1.60;;;;;;;;;;5037365;28;20049;-73
2023/03/24 00:45:08;;;;;;;4.50;1.70;;;;;;;;;;5036862;28;20481;-72
2023/03/24 00:47:36;;;;;;;3.13;1.52;;;;;;;;;;5036727;28;20029;-73
2023/03/24 00:50:08;;;;;;;2.65;1.70;;;;;;;;;;5036531;28;20541;-73
2023/03/24 00:52:33;;;;;;;3.03;1.70;;;;;;;;;;5035687;28;20025;-72
2023/03/24 00:55:00;;;;;;;2.72;1.70;;;;;;;;;;5033401;28;20508;-72
2023/03/24 00:57:28;;;;;;;2.67;1.83;;;;;;;;;;5036301;28;20029;-73
2023/03/24 00:59:55;;;;;;;4.30;1.80;;;;;;;;;;5035213;28;20119;-72
2023/03/24 01:02:23;;;;;;;2.60;1.85;;;;;;;;;;5036660;28;20485;-72
2023/03/24 01:04:53;;;;;;;4.28;1.58;;;;;;;;;;5034413;28;20029;-71
2023/03/24 01:07:19;;;;;;;3.38;1.65;;;;;;;;;;5035707;28;20017;-74
2023/03/24 01:09:50;;;;;;;3.05;1.67;;;;;;;;;;5035280;28;20388;-73
2023/03/24 01:12:17;;;;;;;3.08;1.92;;;;;;;;;;5036301;28;20022;-73
2023/03/24 01:14:43;;;;;;;3.53;1.70;;;;;;;;;;5034802;28;20067;-73
2023/03/24 01:17:08;;;;;;;3.75;1.85;;;;;;;;;;5036117;28;20057;-72
2023/03/24 01:19:35;;;;;;;4.03;1.80;;;;;;;;;;5035175;28;20030;-72
2023/03/24 01:22:01;;;;;;;2.58;1.98;;;;;;;;;;5036053;28;20273;-72
2023/03/24 01:24:26;;;;;;;3.60;1.92;;;;;;;;;;5036005;28;20021;-72
2023/03/24 01:26:51;;;;;;;3.05;1.77;;;;;;;;;;5036019;28;20495;-72
2023/03/24 01:29:17;;;;;;;3.92;1.60;;;;;;;;;;5035841;28;20068;-72
2023/03/24 01:31:42;;;;;;;5.30;2.00;;;;;;;;;;5035795;28;20583;-73
2023/03/24 01:34:08;;;;;;;2.90;1.77;;;;;;;;;;5035868;28;20029;-72
2023/03/24 01:36:33;;;;;;;2.22;1.63;;;;;;;;;;5035921;28;20266;-73
2023/03/24 01:39:00;;;;;;;3.83;1.70;;;;;;;;;;5035626;28;20029;-77
2023/03/24 01:41:30;;;;;;;4.25;2.20;;;;;;;;;;5035501;28;20025;-72
2023/03/24 01:43:55;;;;;;;2.45;1.63;;;;;;;;;;5034293;28;20025;-72
2023/03/24 01:46:22;;;;;;;3.55;1.80;;;;;;;;;;5035640;28;20155;-72
2023/03/24 01:48:55;;;;;;;4.43;1.75;;;;;;;;;;5033266;28;20109;-72
2023/03/24 01:51:28;;;;;;;4.05;1.77;;;;;;;;;;5035456;28;20063;-71
2023/03/24 01:54:17;;;;;;;2.70;1.87;;;;;;;;;;5035746;28;20040;-77
2023/03/24 01:56:47;;;;;;;4.15;1.88;;;;;;;;;;5035320;28;20048;-74
2023/03/24 01:59:19;;;;;;;3.42;1.70;;;;;;;;;;5035752;28;20037;-74
2023/03/24 02:01:45;;;;;;;2.05;1.70;;;;;;;;;;5035255;28;20084;-74
2023/03/24 02:04:11;;;;;;;3.03;1.88;;;;;;;;;;5034681;28;20455;-73
2023/03/24 02:06:42;;;;;;;4.75;1.90;;;;;;;;;;5033779;28;20056;-74
2023/03/24 02:09:10;;;;;;;2.80;1.88;;;;;;;;;;5034850;28;20029;-72
2023/03/24 02:11:37;;;;;;;3.08;2.05;;;;;;;;;;5034916;28;20032;-73
2023/03/24 02:14:04;;;;;;;3.65;1.77;;;;;;;;;;5032462;28;20036;-73
2023/03/24 02:17:07;;;;;;;2.25;1.70;;;;;;;;;;5034839;28;20033;-73
2023/03/24 02:20:10;;;;;;;2.85;1.83;;;;;;;;;;5034947;28;20022;-73
2023/03/24 02:23:13;;;;;;;2.53;1.45;;;;;;;;;;5035265;28;20018;-73
2023/03/24 02:25:50;;;;;;;2.55;1.83;;;;;;;;;;5034992;28;20028;-73
2023/03/24 02:28:31;;;;;;;3.22;2.10;;;;;;;;;;5034866;28;20485;-72
2023/03/24 02:31:15;;;;;;;2.67;1.88;;;;;;;;;;5033532;28;20120;-72
2023/03/24 02:34:18;;;;;;;2.97;2.00;;;;;;;;;;5034998;28;20024;-73
2023/03/24 02:36:49;;;;;;;4.70;2.10;;;;;;;;;;5034664;28;20071;-73
2023/03/24 02:39:36;;;;;;;2.47;1.73;;;;;;;;;;5034428;28;20035;-73
2023/03/24 02:42:20;;;;;;;3.00;1.60;;;;;;;;;;5033301;28;20389;-73
2023/03/24 02:44:51;;;;;;;1.92;1.58;;;;;;;;;;5034497;28;20018;-73
2023/03/24 02:47:52;;;;;;;3.70;2.10;;;;;;;;;;5034624;28;20116;-73
2023/03/24 02:50:27;;;;;;;3.90;1.83;;;;;;;;;;5034565;28;20057;-73
2023/03/24 02:53:07;;;;;;;4.13;1.70;;;;;;;;;;5034816;28;20028;-73
2023/03/24 02:55:48;;;;;;;2.65;1.80;;;;;;;;;;5034736;28;20393;-73
2023/03/24 02:58:18;;;;;;;2.97;1.77;;;;;;;;;;5034314;28;20041;-73
2023/03/24 03:00:45;;;;;;;2.58;1.83;;;;;;;;;;5034066;28;20076;-73
2023/03/24 03:03:27;;;;;;;2.72;1.77;;;;;;;;;;5034429;28;20028;-73
2023/03/24 03:06:00;;;;;;;2.58;1.80;;;;;;;;;;5034225;28;20053;-73
2023/03/24 03:08:29;;;;;;;3.85;1.73;;;;;;;;;;5034078;28;20029;-72
2023/03/24 03:10:56;;;;;;;3.47;1.80;;;;;;;;;;5032741;28;20079;-74
2023/03/24 03:13:27;;;;;;;3.33;1.70;;;;;;;;;;5032672;28;20400;-74
2023/03/24 03:15:55;;;;;;;2.70;1.70;;;;;;;;;;5032734;28;20032;-73
2023/03/24 03:18:44;;;;;;;4.53;1.80;;;;;;;;;;5033840;28;20025;-72
2023/03/24 03:21:12;;;;;;;3.47;2.10;;;;;;;;;;5033890;28;20037;-72
2023/03/24 03:23:42;;;;;;;3.58;1.70;;;;;;;;;;5033755;28;20400;-73
2023/03/24 03:26:12;;;;;;;6.20;1.65;;;;;;;;;;5033978;28;20021;-73
2023/03/24 03:28:42;;;;;;;3.45;1.75;;;;;;;;;;5032245;28;20107;-72
2023/03/24 03:31:14;;;;;;;2.78;1.70;;;;;;;;;;5032433;28;20021;-72
2023/03/24 03:33:47;;;;;;;2.50;1.65;;;;;;;;;;5033686;28;20079;-73
2023/03/24 03:36:19;;;;;;;2.20;1.60;;;;;;;;;;5032355;28;20431;-73
2023/03/24 03:38:59;;;;;;;2.80;1.80;;;;;;;;;;5032063;28;20033;-74
2023/03/24 03:41:24;;;;;;;3.47;2.00;;;;;;;;;;5033816;28;20025;-73
2023/03/24 03:43:49;;;;;;;3.65;1.90;;;;;;;;;;5033488;28;20125;-73
2023/03/24 03:46:16;;;;;;;3.83;1.95;;;;;;;;;;5033549;28;20018;-73
2023/03/24 03:48:43;;;;;;;4.68;2.10;;;;;;;;;;5033372;28;20076;-73
2023/03/24 03:51:09;;;;;;;6.10;1.90;;;;;;;;;;5033555;28;20057;-73
2023/03/24 03:53:51;;;;;;;3.88;2.13;;;;;;;;;;5033206;28;20087;-72
2023/03/24 03:56:19;;;;;;;2.40;1.83;;;;;;;;;;5031908;28;20036;-72
2023/03/24 03:58:48;;;;;;;5.07;1.90;;;;;;;;;;5032946;28;20029;-73
2023/03/24 04:01:20;;;;;;;3.50;1.90;;;;;;;;;;5031874;28;20145;-72
2023/03/24 04:04:10;;;;;;;3.33;2.20;;;;;;;;;;5031191;28;20024;-73
2023/03/24 04:06:52;;;;;;;2.97;2.00;;;;;;;;;;5032038;28;20493;-73
2023/03/24 04:09:26;;;;;;;2.50;1.70;;;;;;;;;;5031438;28;20021;-73
2023/03/24 04:12:25;;;;;;;4.00;2.35;;;;;;;;;;5032910;28;20032;-73
2023/03/24 04:15:13;;;;;;;2.45;1.70;;;;;;;;;;5031750;28;20033;-73
2023/03/24 04:18:19;;;;;;;4.43;1.70;;;;;;;;;;5029165;28;20100;-74
2023/03/24 04:21:02;;;;;;;3.75;1.75;;;;;;;;;;5029572;28;20095;-72
2023/03/24 04:23:48;;;;;;;2.97;2.10;;;;;;;;;;5032940;28;20029;-73
2023/03/24 04:26:25;;;;;;;4.40;2.03;;;;;;;;;;5032894;28;20029;-73
2023/03/24 04:29:05;;;;;;;3.70;2.17;;;;;;;;;;5032934;28;20025;-73
2023/03/24 04:31:48;;;;;;;3.90;1.70;;;;;;;;;;5033199;28;20075;-73
2023/03/24 04:34:28;;;;;;;3.85;2.17;;;;;;;;;;5033046;28;20112;-73
2023/03/24 04:37:01;;;;;;;3.80;2.20;;;;;;;;;;5032777;28;20040;-73
2023/03/24 04:39:28;;;;;;;3.25;2.05;;;;;;;;;;5032972;28;20026;-73
2023/03/24 04:41:56;;;;;;;6.78;2.08;;;;;;;;;;5031429;28;20141;-71
2023/03/24 04:44:23;;;;;;;4.25;2.03;;;;;;;;;;5032700;28;20108;-73
2023/03/24 04:46:50;;;;;;;4.07;2.15;;;;;;;;;;5032607;28;20481;-73
2023/03/24 04:49:18;;;;;;;3.70;2.20;;;;;;;;;;5032770;28;20113;-73
2023/03/24 04:51:44;;;;;;;3.88;1.90;;;;;;;;;;5031327;28;20036;-73
2023/03/24 04:54:10;;;;;;;2.95;2.00;;;;;;;;;;5032815;28;20155;-72
2023/03/24 04:56:57;;;;;;;4.32;2.05;;;;;;;;;;5033431;28;20116;-74
2023/03/24 04:59:22;;;;;;;6.43;2.08;;;;;;;;;;5032451;28;20069;-73
2023/03/24 05:01:50;;;;;;;3.72;2.17;;;;;;;;;;5031309;28;20065;-74
2023/03/24 05:04:16;;;;;;;3.13;1.98;;;;;;;;;;5032540;28;20034;-73
2023/03/24 05:06:42;;;;;;;2.63;1.85;;;;;;;;;;5032512;28;20075;-73
2023/03/24 05:09:07;;;;;;;3.67;2.42;;;;;;;;;;5032314;28;20104;-71
2023/03/24 05:11:32;;;;;;;3.33;2.20;;;;;;;;;;5031184;28;20021;-74
2023/03/24 05:13:57;;;;;;;6.43;1.92;;;;;;;;;;5032675;28;20267;-74
2023/03/24 05:16:23;;;;;;;3.47;2.10;;;;;;;;;;5032334;28;20104;-73
2023/03/24 05:18:48;;;;;;;2.60;2.10;;;;;;;;;;5032133;28;20416;-73
2023/03/24 05:21:13;;;;;;;4.23;2.40;;;;;;;;;;5032395;28;20018;-74
2023/03/24 05:23:39;;;;;;;6.70;2.22;;;;;;;;;;5034009;28;20265;-72
2023/03/24 05:26:04;;;;;;;6.23;2.27;;;;;;;;;;5035077;28;20021;-73
2023/03/24 05:28:30;;;;;;;5.05;2.40;;;;;;;;;;5035923;28;20269;-74
2023/03/24 05:30:55;;;;;;;3.45;2.35;;;;;;;;;;5036273;28;20030;-73
2023/03/24 05:33:21;;;;;;;5.00;2.83;;;;;;;;;;5035903;28;20022;-74
2023/03/24 05:35:46;;;;;;;3.35;2.30;;;;;;;;;;5035871;28;20033;-73
2023/03/24 05:38:11;;;;;;;5.90;2.53;;;;;;;;;;5035764;28;20028;-74
2023/03/24 05:40:37;;;;;;;4.78;2.40;;;;;;;;;;5035654;28;20033;-74
2023/03/24 05:43:02;;;;;;;8.40;2.63;;;;;;;;;;5035676;28;20030;-73
2023/03/24 05:45:29;;;;;;;5.63;2.35;;;;;;;;;;5035819;28;20511;-74
2023/03/24 05:47:54;;;;;;;4.22;2.42;;;;;;;;;;5035495;28;20550;-72
2023/03/24 05:50:20;;;;;;;4.30;2.72;;;;;;;;;;5035835;28;20029;-73
2023/03/24 05:52:45;;;;;;;6.10;2.70;;;;;;;;;;5035717;28;20049;-73
2023/03/24 05:55:10;;;;;;;8.02;2.97;;;;;;;;;;5035777;28;20029;-75
2023/03/24 05:57:36;;;;;;;5.65;2.60;;;;;;;;;;5035663;28;20037;-73
2023/03/24 06:00:09;;;;;;;3.27;2.30;;;;;;;;;;5034063;28;20017;-74
2023/03/24 06:02:34;;;;;;;3.83;2.35;;;;;;;;;;5035370;28;20625;-73
2023/03/24 06:05:00;;;;;;;6.15;2.78;;;;;;;;;;5035255;28;20029;-74
2023/03/24 06:07:29;;;;;;;6.32;2.80;;;;;;;;;;5033937;28;20028;-73
2023/03/24 06:09:56;;;;;;;5.47;2.83;;;;;;;;;;5033842;28;20480;-73
2023/03/24 06:12:22;;;;;;;6.85;3.20;;;;;;;;;;5033866;28;20029;-73
2023/03/24 06:14:48;;;;;;;4.03;2.75;;;;;;;;;;5035058;28;20504;-73
2023/03/24 06:17:13;;;;;;;7.78;3.03;;;;;;;;;;5035037;28;20560;-73
2023/03/24 06:19:39;;;;;;;5.45;2.90;;;;;;;;;;5033654;28;20049;-73
2023/03/24 06:22:05;;;;;;;5.35;2.58;;;;;;;;;;5034969;28;20083;-74
2023/03/24 06:24:30;;;;;;;4.75;2.83;;;;;;;;;;5033808;28;20022;-73
2023/03/24 06:27:00;;;;;;;6.65;2.95;;;;;;;;;;5035179;28;20033;-73
2023/03/24 06:29:27;;;;;;;5.85;2.75;;;;;;;;;;5035174;28;20064;-73
2023/03/24 06:31:53;;;;;;;5.80;3.10;;;;;;;;;;5033442;28;20505;-73
2023/03/24 06:34:18;;;;;;;5.27;2.70;;;;;;;;;;5034315;28;20045;-72
2023/03/24 06:36:43;;;;;;;5.37;2.53;;;;;;;;;;5034607;28;20274;-73
2023/03/24 06:39:09;;;;;;;3.75;2.30;;;;;;;;;;5034056;28;20279;-72
2023/03/24 06:41:34;;;;;;;4.28;2.72;;;;;;;;;;5034473;28;20022;-72
2023/03/24 06:44:00;;;;;;;5.40;2.60;;;;;;;;;;5034818;28;20163;-73
2023/03/24 06:46:25;;;;;;;5.30;2.58;;;;;;;;;;5034300;28;20017;-71
2023/03/24 06:48:50;;;;;;;4.07;2.80;;;;;;;;;;5034268;28;20109;-72
2023/03/24 06:51:16;;;;;;;5.32;2.45;;;;;;;;;;5032999;28;20294;-72
2023/03/24 06:53:44;;;;;;;4.72;2.33;;;;;;;;;;5034307;28;20083;-73
2023/03/24 06:56:09;;;;;;;3.97;2.20;;;;;;;;;;5034325;28;20033;-72
2023/03/24 06:58:34;;;;;;;5.13;2.30;;;;;;;;;;5032829;28;20033;-72
2023/03/24 07:01:00;;;;;;;6.23;2.50;;;;;;;;;;5034196;28;20021;-73
2023/03/24 07:03:26;;;;;;;7.10;2.60;;;;;;;;;;5034057;28;20265;-72
2023/03/24 07:05:51;;;;;;;3.63;2.05;;;;;;;;;;5032815;28;20037;-73
2023/03/24 07:08:16;;;;;;;3.90;2.37;;;;;;;;;;5032704;28;20071;-72
2023/03/24 07:10:42;;;;;;;3.22;2.00;;;;;;;;;;5033952;28;20400;-72
2023/03/24 07:13:07;;;;;;;3.38;2.08;;;;;;;;;;5034131;28;20036;-72
2023/03/24 07:15:33;;;;;;;4.68;2.10;;;;;;;;;;5032737;28;20025;-72
2023/03/24 07:17:58;;;;;;;2.80;1.75;;;;;;;;;;5033728;28;20025;-72
2023/03/24 07:20:23;;;;;;;3.70;1.80;;;;;;;;;;5034295;28;20025;-72
2023/03/24 07:22:49;;;;;;;5.00;2.00;;;;;;;;;;5034077;28;20346;-72
2023/03/24 07:25:18;;;;;;;5.03;2.20;;;;;;;;;;5033756;28;20033;-72
2023/03/24 07:27:44;;;;;;;4.15;2.50;;;;;;;;;;5033688;28;20439;-73
2023/03/24 07:30:10;;;;;;;4.55;2.17;;;;;;;;;;5033813;28;20087;-73
2023/03/24 07:32:38;;;;;;;3.20;1.80;;;;;;;;;;5033614;28;20433;-74
2023/03/24 07:35:05;;;;;;;4.50;2.22;;;;;;;;;;5033623;28;20052;-73
2023/03/24 07:37:30;;;;;;;4.55;2.25;;;;;;;;;;5033404;28;20031;-72
2023/03/24 07:39:55;;;;;;;3.63;2.10;;;;;;;;;;5033414;28;20377;-72
2023/03/24 07:42:21;;;;;;;2.80;1.80;;;;;;;;;;5033877;28;20021;-73
2023/03/24 07:44:46;;;;;;;6.87;2.17;;;;;;;;;;5033893;28;20029;-72
2023/03/24 07:47:11;;;;;;;3.33;2.03;;;;;;;;;;5031182;28;20271;-73
2023/03/24 07:49:36;;;;;;;3.60;1.90;;;;;;;;;;5031874;28;20271;-75
2023/03/24 07:52:05;;;;;;;2.70;1.87;;;;;;;;;;5033198;28;20263;-74
2023/03/24 07:54:31;;;;;;;2.10;1.70;;;;;;;;;;5033295;28;20259;-75
2023/03/24 07:56:56;;;;;;;3.45;1.80;;;;;;;;;;5033263;28;20028;-74
2023/03/24 07:59:22;;;;;;;4.27;1.77;;;;;;;;;;5032966;28;20033;-74
2023/03/24 08:01:48;;;;;;;2.75;1.90;;;;;;;;;;5033203;28;20266;-75
2023/03/24 08:04:14;;;;;;;4.40;2.13;;;;;;;;;;5033225;28;20056;-74
2023/03/24 08:06:42;;;;;;;3.15;2.03;;;;;;;;;;5031810;28;20083;-74
2023/03/24 08:09:08;;;;;;;3.22;1.90;;;;;;;;;;5033034;28;20024;-73
2023/03/24 08:11:34;;;;;;;4.07;2.17;;;;;;;;;;5032894;28;20109;-75
2023/03/24 08:13:59;;;;;;;5.03;1.83;;;;;;;;;;5032867;28;20023;-75
2023/03/24 08:16:25;;;;;;;3.30;1.90;;;;;;;;;;5032967;28;20211;-75
2023/03/24 08:18:51;;;;;;;4.32;1.80;;;;;;;;;;5032752;28;20032;-74
2023/03/24 08:21:16;;;;;;;3.33;1.60;;;;;;;;;;5032776;28;20021;-75
2023/03/24 08:23:41;;;;;;;2.60;1.80;;;;;;;;;;5032617;28;20033;-74
2023/03/24 08:26:09;;;;;;;1.75;1.40;;;;;;;;;;5032590;28;20079;-75
2023/03/24 08:28:34;;;;;;;4.95;1.83;;;;;;;;;;5032203;28;20029;-74
2023/03/24 08:31:00;;;;;;;2.10;1.40;;;;;;;;;;5032766;28;20104;-74
2023/03/24 08:33:25;;;;;;;4.25;1.33;;;;;;;;;;5032788;28;20051;-75
2023/03/24 08:35:51;;;;;;;2.25;1.50;;;;;;;;;;5033138;28;20031;-74
2023/03/24 08:38:16;;;;;;;2.03;1.40;;;;;;;;;;5032570;28;20053;-74
2023/03/24 08:40:42;;;;;;;2.20;1.80;;;;;;;;;;5032576;28;20491;-74
2023/03/24 08:43:12;;;;;;;4.10;1.77;;;;;;;;;;5032629;28;20029;-74
2023/03/24 08:45:38;;;;;;;5.57;1.80;;;;;;;;;;5032905;28;20033;-75
2023/03/24 08:48:06;;;;;;;5.15;1.80;;;;;;;;;;5032558;28;20075;-74
2023/03/24 08:50:34;;;;;;;3.33;1.40;;;;;;;;;;5032580;28;20501;-75
2023/03/24 08:53:00;;;;;;;1.73;1.50;;;;;;;;;;5032632;28;20036;-75
2023/03/24 08:55:26;;;;;;;8.98;1.80;;;;;;;;;;5032789;28;20554;-75
2023/03/24 08:57:51;;;;;;;2.92;1.63;;;;;;;;;;5033030;28;20045;-73
2023/03/24 09:00:18;;;;;;;2.65;1.50;;;;;;;;;;5036610;28;20021;-73
2023/03/24 09:02:50;;;;;;;3.20;1.80;;;;;;;;;;5035192;28;20025;-74
2023/03/24 09:05:18;;;;;;;2.15;1.48;;;;;;;;;;5036641;28;20488;-74
2023/03/24 09:07:43;;;;;;;4.57;1.50;;;;;;;;;;5036434;28;20048;-74
2023/03/24 09:10:09;;;;;;;2.20;1.55;;;;;;;;;;5036511;28;20034;-74
2023/03/24 09:12:35;;;;;;;4.70;1.55;;;;;;;;;;5035504;28;20018;-72
2023/03/24 09:15:01;;;;;;;4.32;1.88;;;;;;;;;;5036464;28;20037;-74
2023/03/24 09:17:26;;;;;;;3.22;1.95;;;;;;;;;;5036017;28;20017;-74
2023/03/24 09:19:52;;;;;;;2.33;1.60;;;;;;;;;;5034775;28;20025;-73
2023/03/24 09:22:17;;;;;;;3.95;1.60;;;;;;;;;;5036164;28;20032;-75
2023/03/24 09:24:43;;;;;;;2.90;1.65;;;;;;;;;;5036332;28;20416;-75
2023/03/24 09:27:09;;;;;;;2.05;1.70;;;;;;;;;;5034802;28;20021;-76
2023/03/24 09:29:34;;;;;;;2.38;1.40;;;;;;;;;;5036345;28;20039;-74
2023/03/24 09:31:59;;;;;;;4.60;1.80;;;;;;;;;;5035928;28;20527;-74
2023/03/24 09:34:24;;;;;;;3.30;1.80;;;;;;;;;;5034725;28;20022;-74
2023/03/24 09:36:50;;;;;;;3.42;1.48;;;;;;;;;;5036138;28;20255;-74
2023/03/24 09:39:15;;;;;;;2.73;1.50;;;;;;;;;;5035480;28;20025;-74
2023/03/24 09:41:44;;;;;;;2.28;1.50;;;;;;;;;;5036005;28;20263;-74
2023/03/24 09:44:35;;;;;;;2.30;1.70;;;;;;;;;;5035215;28;20021;-74
2023/03/24 09:47:11;;;;;;;2.15;1.40;;;;;;;;;;5035820;28;20083;-74
2023/03/24 09:49:40;;;;;;;2.40;1.67;;;;;;;;;;5035567;28;20030;-72
2023/03/24 09:52:09;;;;;;;2.92;1.40;;;;;;;;;;5035416;28;20139;-73
2023/03/24 09:54:49;;;;;;;2.97;1.67;;;;;;;;;;5035674;28;20061;-74
2023/03/24 09:57:24;;;;;;;2.17;1.50;;;;;;;;;;5035213;28;20029;-73
2023/03/24 09:59:50;;;;;;;2.22;1.40;;;;;;;;;;5035351;28;20049;-74
2023/03/24 10:02:18;;;;;;;2.40;1.63;;;;;;;;;;5034062;28;20072;-72
2023/03/24 10:04:44;;;;;;;2.75;1.40;;;;;;;;;;5035294;28;20033;-73
2023/03/24 10:07:31;;;;;;;4.75;1.45;;;;;;;;;;5035155;28;20397;-72
2023/03/24 10:09:58;;;;;;;1.30;1.20;;;;;;;;;;5033176;28;20028;-75
2023/03/24 10:12:28;;;;;;;3.25;1.50;;;;;;;;;;5035121;28;20105;-74
2023/03/24 10:15:05;;;;;;;3.15;1.42;;;;;;;;;;5035094;28;20180;-73
2023/03/24 10:17:53;;;;;;;3.75;1.60;;;;;;;;;;5033740;28;20163;-74
2023/03/24 10:20:32;;;;;;;2.08;1.40;;;;;;;;;;5035267;28;20032;-74
2023/03/24 10:23:23;;;;;;;2.92;1.20;;;;;;;;;;5034983;28;20029;-75
2023/03/24 10:26:24;;;;;;;2.40;1.10;;;;;;;;;;5034935;28;20026;-72
2023/03/24 10:29:16;;;;;;;2.65;1.20;;;;;;;;;;5033598;28;20484;-75
2023/03/24 10:31:43;;;;;;;4.60;0.95;;;;;;;;;;5035014;28;20036;-74
2023/03/24 10:34:11;;;;;;;1.40;0.85;;;;;;;;;;5034785;28;20029;-74
2023/03/24 10:36:38;;;;;;;1.30;0.75;;;;;;;;;;5034690;28;20049;-73
2023/03/24 10:39:04;;;;;;;0.70;0.70;;;;;;;;;;5033042;28;20048;-73
2023/03/24 10:41:32;;;;;;;1.40;0.80;;;;;;;;;;5034495;28;20112;-73
2023/03/24 10:43:59;;;;;;;0.93;0.73;;;;;;;;;;5034743;28;20424;-74
2023/03/24 10:46:29;;;;;;;2.60;0.70;;;;;;;;;;5034449;28;20040;-74
2023/03/24 10:49:19;;;;;;;1.02;0.80;;;;;;;;;;5034320;28;20021;-74
2023/03/24 10:51:47;;;;;;;2.15;0.60;;;;;;;;;;5034593;28;20492;-73
2023/03/24 10:54:17;;;;;;;0.60;0.60;;;;;;;;;;5032892;28;20488;-74
2023/03/24 10:56:44;;;;;;;0.60;0.60;;;;;;;;;;5034022;28;20026;-74
2023/03/24 10:59:24;;;;;;;1.27;0.65;;;;;;;;;;5032802;28;20133;-74
2023/03/24 11:01:54;;;;;;;0.90;0.70;;;;;;;;;;5034072;28;20037;-74
2023/03/24 11:04:19;;;;;;;0.95;0.70;;;;;;;;;;5034077;28;20440;-72
2023/03/24 11:07:00;;;;;;;1.50;0.90;;;;;;;;;;5033929;28;20021;-73
2023/03/24 11:09:25;;;;;;;0.85;0.80;;;;;;;;;;5033948;28;20014;-73
2023/03/24 11:11:52;;;;;;;0.82;0.70;;;;;;;;;;5033899;28;20030;-73
2023/03/24 11:14:26;;;;;;;1.67;0.70;;;;;;;;;;5033741;28;20100;-74
2023/03/24 11:17:00;;;;;;;0.88;0.60;;;;;;;;;;5033721;28;20021;-73
2023/03/24 11:19:25;;;;;;;1.98;0.70;;;;;;;;;;5032307;28;20037;-74
2023/03/24 11:21:58;;;;;;;0.88;0.60;;;;;;;;;;5033692;28;20544;-73
2023/03/24 11:24:24;;;;;;;1.83;0.60;;;;;;;;;;5034037;28;20124;-73
2023/03/24 11:26:57;;;;;;;0.65;0.63;;;;;;;;;;5033553;28;20026;-74
2023/03/24 11:29:24;;;;;;;1.55;0.60;;;;;;;;;;5033582;28;20071;-74
2023/03/24 11:31:59;;;;;;;2.55;0.70;;;;;;;;;;5033380;28;20476;-74
2023/03/24 11:34:37;;;;;;;2.70;0.60;;;;;;;;;;5033495;28;20057;-74
2023/03/24 11:37:19;;;;;;;1.52;0.60;;;;;;;;;;5033624;28;20036;-73
2023/03/24 11:40:15;;;;;;;1.20;0.63;;;;;;;;;;5033804;28;20025;-73
2023/03/24 11:42:54;;;;;;;2.13;0.60;;;;;;;;;;5033575;28;20104;-73
2023/03/24 11:45:42;;;;;;;1.40;0.80;;;;;;;;;;5033653;28;20029;-73
2023/03/24 11:48:29;;;;;;;1.90;0.77;;;;;;;;;;5033170;28;20112;-73
2023/03/24 11:50:56;;;;;;;3.13;0.65;;;;;;;;;;5033228;28;20026;-74
2023/03/24 11:53:27;;;;;;;0.63;0.63;;;;;;;;;;5033154;28;20136;-75
2023/03/24 11:56:01;;;;;;;1.25;0.63;;;;;;;;;;5033377;28;20496;-73
2023/03/24 11:58:58;;;;;;;0.60;0.60;;;;;;;;;;5031692;28;20028;-74
2023/03/24 12:01:30;;;;;;;1.42;0.60;;;;;;;;;;5033690;28;20503;-74
2023/03/24 12:04:20;;;;;;;5.15;0.75;;;;;;;;;;5033033;28;20033;-74
2023/03/24 12:06:57;;;;;;;1.10;0.80;;;;;;;;;;5031723;28;20025;-74
2023/03/24 12:09:31;;;;;;;2.25;0.80;;;;;;;;;;5033528;28;20029;-75
2023/03/24 12:12:20;;;;;;;0.50;0.50;;;;;;;;;;5032963;28;20021;-75
2023/03/24 12:14:50;;;;;;;0.90;0.70;;;;;;;;;;5033212;28;20025;-73
2023/03/24 12:17:58;;;;;;;1.77;0.63;;;;;;;;;;5032852;28;20034;-75
2023/03/24 12:20:40;;;;;;;0.60;0.60;;;;;;;;;;5022160;28;20053;-73
2023/03/24 12:23:33;;;;;;;1.15;0.45;;;;;;;;;;5032978;28;20029;-73
2023/03/24 12:26:13;;;;;;;1.40;0.50;;;;;;;;;;5031554;28;20631;-74
2023/03/24 12:28:57;;;;;;;3.20;0.80;;;;;;;;;;5033029;28;20017;-74
2023/03/24 12:31:41;;;;;;;0.65;0.47;;;;;;;;;;5032487;28;20488;-74
2023/03/24 12:34:24;;;;;;;0.60;0.60;;;;;;;;;;5033222;28;20053;-74
2023/03/24 12:37:04;;;;;;;1.20;0.55;;;;;;;;;;5031370;28;20078;-73
2023/03/24 12:39:34;;;;;;;0.60;0.55;;;;;;;;;;5031277;28;20025;-73
2023/03/24 12:42:09;;;;;;;0.70;0.50;;;;;;;;;;5033249;28;20029;-73
2023/03/24 12:44:52;;;;;;;0.70;0.60;;;;;;;;;;5032657;28;20540;-74
2023/03/24 12:47:26;;;;;;;0.52;0.52;;;;;;;;;;5033019;28;20033;-73
2023/03/24 12:50:02;;;;;;;0.70;0.50;;;;;;;;;;5031346;28;20455;-74
2023/03/24 12:53:01;;;;;;;0.77;0.50;;;;;;;;;;5031405;28;20025;-72
2023/03/24 12:55:46;;;;;;;2.85;0.55;;;;;;;;;;5032633;28;20056;-73
2023/03/24 12:58:14;;;;;;;0.50;0.50;;;;;;;;;;5033053;28;20566;-74
2023/03/24 13:00:56;;;;;;;0.88;0.60;;;;;;;;;;5033107;28;20025;-74
2023/03/24 13:03:29;;;;;;;1.33;0.75;;;;;;;;;;5032860;28;20083;-74
2023/03/24 13:05:57;;;;;;;0.50;0.50;;;;;;;;;;5032973;28;20337;-73
2023/03/24 13:08:28;;;;;;;0.60;0.60;;;;;;;;;;5031096;28;20079;-75
2023/03/24 13:11:01;;;;;;;0.50;0.50;;;;;;;;;;5032781;28;20041;-74
2023/03/24 13:13:42;;;;;;;0.98;0.65;;;;;;;;;;5032864;28;20052;-73
2023/03/24 13:16:14;;;;;;;1.25;0.75;;;;;;;;;;5032266;28;20033;-74
2023/03/24 13:18:58;;;;;;;2.20;0.70;;;;;;;;;;5032589;28;20053;-74
2023/03/24 13:21:25;;;;;;;1.95;0.80;;;;;;;;;;5032707;28;20449;-73
2023/03/24 13:23:56;;;;;;;1.13;0.60;;;;;;;;;;5032282;28;20036;-73
2023/03/24 13:26:37;;;;;;;0.95;0.60;;;;;;;;;;5031155;28;20025;-74
2023/03/24 13:29:02;;;;;;;0.82;0.80;;;;;;;;;;5030945;28;20382;-74
2023/03/24 13:31:34;;;;;;;1.53;0.80;;;;;;;;;;5032244;28;20083;-76
2023/03/24 13:34:01;;;;;;;0.63;0.63;;;;;;;;;;5032567;28;20021;-75
2023/03/24 13:36:47;;;;;;;1.05;0.80;;;;;;;;;;5032497;28;20028;-74
2023/03/24 13:39:15;;;;;;;0.98;0.80;;;;;;;;;;5032192;28;20084;-74
2023/03/24 13:41:48;;;;;;;1.25;0.85;;;;;;;;;;5032183;28;20120;-74
2023/03/24 13:44:20;;;;;;;2.10;0.90;;;;;;;;;;5033150;28;20095;-72
2023/03/24 13:47:10;;;;;;;4.32;0.85;;;;;;;;;;5035458;28;20107;-75
2023/03/24 13:49:37;;;;;;;2.88;0.90;;;;;;;;;;5035427;28;20044;-75
2023/03/24 13:52:05;;;;;;;3.28;0.80;;;;;;;;;;5036501;28;20029;-74
2023/03/24 13:54:31;;;;;;;0.60;0.60;;;;;;;;;;5035780;28;20033;-74
2023/03/24 13:57:17;;;;;;;1.80;0.98;;;;;;;;;;5035682;28;20496;-74
2023/03/24 14:00:10;;;;;;;1.05;0.80;;;;;;;;;;5034158;28;20033;-74
2023/03/24 14:02:54;;;;;;;0.70;0.70;;;;;;;;;;5035542;28;20033;-76
2023/03/24 14:05:22;;;;;;;1.38;0.70;;;;;;;;;;5035748;28;20021;-74
2023/03/24 14:08:10;;;;;;;5.32;0.70;;;;;;;;;;5035398;28;20022;-75
2023/03/24 14:10:42;;;;;;;1.55;0.75;;;;;;;;;;5035551;28;20021;-75
2023/03/24 14:13:10;;;;;;;7.25;0.80;;;;;;;;;;5035709;28;20030;-74
2023/03/24 14:15:57;;;;;;;3.75;0.93;;;;;;;;;;5035187;28;20029;-76
2023/03/24 14:18:22;;;;;;;1.42;0.50;;;;;;;;;;5035601;28;20112;-74
2023/03/24 14:20:56;;;;;;;4.43;1.10;;;;;;;;;;5035261;28;20068;-73
2023/03/24 14:23:30;;;;;;;2.95;0.80;;;;;;;;;;5035194;28;20021;-73
2023/03/24 14:25:55;;;;;;;1.75;0.70;;;;;;;;;;5033963;28;20623;-74
2023/03/24 14:28:30;;;;;;;1.48;0.68;;;;;;;;;;5033677;28;20026;-73
2023/03/24 14:31:02;;;;;;;1.73;0.63;;;;;;;;;;5034963;28;20029;-78
2023/03/24 14:33:28;;;;;;;1.70;0.80;;;;;;;;;;5035068;28;20087;-73
2023/03/24 14:36:03;;;;;;;2.22;0.80;;;;;;;;;;5034754;28;20481;-73
2023/03/24 14:38:34;;;;;;;2.83;0.90;;;;;;;;;;5034704;28;20036;-72
2023/03/24 14:41:06;;;;;;;1.52;0.85;;;;;;;;;;5034552;28;20025;-73
2023/03/24 14:43:40;;;;;;;0.68;0.63;;;;;;;;;;5033595;28;20036;-73
2023/03/24 14:46:20;;;;;;;3.00;0.80;;;;;;;;;;5034503;28;20378;-73
2023/03/24 14:49:02;;;;;;;2.53;0.82;;;;;;;;;;5034543;28;20053;-73
2023/03/24 14:51:36;;;;;;;1.50;0.95;;;;;;;;;;5035097;28;20025;-71
2023/03/24 14:54:06;;;;;;;0.88;0.80;;;;;;;;;;5034765;28;20032;-72
2023/03/24 14:56:39;;;;;;;0.95;0.70;;;;;;;;;;5033878;28;20025;-71
2023/03/24 14:59:14;;;;;;;1.37;0.90;;;;;;;;;;5034225;28;20026;-72
2023/03/24 15:01:44;;;;;;;1.33;0.75;;;;;;;;;;5034153;28;20044;-71
2023/03/24 15:04:10;;;;;;;1.85;1.10;;;;;;;;;;5034286;28;20025;-71
2023/03/24 15:06:43;;;;;;;3.28;1.02;;;;;;;;;;5034184;28;20369;-70
2023/03/24 15:09:09;;;;;;;3.20;0.83;;;;;;;;;;5032804;28;20043;-71